sensor_id;sensor_type;location;lat;lon;timestamp;P1;durP1;ratioP1;P2;durP2;ratioP2
8331;SDS011;4203;48.144;14.118;2023-10-09T00:01:50;1.00;;;1.00;;
8331;SDS011;4203;48.144;14.118;2023-10-09T00:04:20;0.90;;;0.90;;
8331;SDS011;4203;48.144;14.118;2023-10-09T00:06:48;1.15;;;0.80;;
8331;SDS011;4203;48.144;14.118;2023-10-09T00:09:16;1.00;;;0.90;;
8331;SDS011;4203;48.144;14.118;2023-10-09T00:11:58;0.77;;;0.77;;
8331;SDS011;4203;48.144;14.118;2023-10-09T00:14:26;1.10;;;1.10;;
8331;SDS011;4203;48.144;14.118;2023-10-09T00:16:56;0.85;;;0.85;;
8331;SDS011;4203;48.144;14.118;2023-10-09T00:19:42;1.00;;;1.00;;
8331;SDS011;4203;48.144;14.118;2023-10-09T00:22:12;0.93;;;0.93;;
8331;SDS011;4203;48.144;14.118;2023-10-09T00:24:52;0.90;;;0.90;;
8331;SDS011;4203;48.144;14.118;2023-10-09T00:27:38;0.70;;;0.70;;
8331;SDS011;4203;48.144;14.118;2023-10-09T00:30:08;1.02;;;1.02;;
8331;SDS011;4203;48.144;14.118;2023-10-09T00:32:40;0.82;;;0.82;;
8331;SDS011;4203;48.144;14.118;2023-10-09T00:35:15;0.90;;;0.90;;
8331;SDS011;4203;48.144;14.118;2023-10-09T00:38:12;1.65;;;1.05;;
8331;SDS011;4203;48.144;14.118;2023-10-09T00:40:49;1.25;;;1.15;;
8331;SDS011;4203;48.144;14.118;2023-10-09T00:43:30;1.10;;;1.00;;
8331;SDS011;4203;48.144;14.118;2023-10-09T00:46:01;1.77;;;1.17;;
8331;SDS011;4203;48.144;14.118;2023-10-09T00:48:33;0.90;;;0.90;;
8331;SDS011;4203;48.144;14.118;2023-10-09T00:51:05;1.08;;;1.08;;
8331;SDS011;4203;48.144;14.118;2023-10-09T00:53:41;1.00;;;1.00;;
8331;SDS011;4203;48.144;14.118;2023-10-09T00:56:10;1.00;;;1.00;;
8331;SDS011;4203;48.144;14.118;2023-10-09T00:58:56;1.52;;;1.40;;
8331;SDS011;4203;48.144;14.118;2023-10-09T01:01:33;1.00;;;1.00;;
8331;SDS011;4203;48.144;14.118;2023-10-09T01:04:02;0.93;;;0.93;;
8331;SDS011;4203;48.144;14.118;2023-10-09T01:06:36;1.25;;;1.15;;
8331;SDS011;4203;48.144;14.118;2023-10-09T01:09:09;1.00;;;1.00;;
8331;SDS011;4203;48.144;14.118;2023-10-09T01:11:37;1.08;;;1.08;;
8331;SDS011;4203;48.144;14.118;2023-10-09T01:14:15;1.10;;;1.10;;
8331;SDS011;4203;48.144;14.118;2023-10-09T01:16:46;0.93;;;0.93;;
8331;SDS011;4203;48.144;14.118;2023-10-09T01:19:14;1.13;;;1.13;;
8331;SDS011;4203;48.144;14.118;2023-10-09T01:21:49;1.02;;;1.02;;
8331;SDS011;4203;48.144;14.118;2023-10-09T01:24:18;1.02;;;1.02;;
8331;SDS011;4203;48.144;14.118;2023-10-09T01:26:47;1.17;;;1.17;;
8331;SDS011;4203;48.144;14.118;2023-10-09T01:29:19;0.88;;;0.88;;
8331;SDS011;4203;48.144;14.118;2023-10-09T01:31:48;1.10;;;1.10;;
8331;SDS011;4203;48.144;14.118;2023-10-09T01:34:20;1.10;;;1.10;;
8331;SDS011;4203;48.144;14.118;2023-10-09T01:36:51;0.93;;;0.93;;
8331;SDS011;4203;48.144;14.118;2023-10-09T01:39:23;1.25;;;1.20;;
8331;SDS011;4203;48.144;14.118;2023-10-09T01:41:53;1.50;;;1.40;;
8331;SDS011;4203;48.144;14.118;2023-10-09T01:44:25;1.40;;;1.30;;
8331;SDS011;4203;48.144;14.118;2023-10-09T01:46:55;1.00;;;1.00;;
8331;SDS011;4203;48.144;14.118;2023-10-09T01:49:23;1.10;;;1.10;;
8331;SDS011;4203;48.144;14.118;2023-10-09T01:51:57;1.00;;;1.00;;
8331;SDS011;4203;48.144;14.118;2023-10-09T01:54:34;1.08;;;1.08;;
8331;SDS011;4203;48.144;14.118;2023-10-09T01:57:06;1.10;;;1.10;;
8331;SDS011;4203;48.144;14.118;2023-10-09T01:59:38;1.25;;;1.25;;
8331;SDS011;4203;48.144;14.118;2023-10-09T02:02:09;2.50;;;1.40;;
8331;SDS011;4203;48.144;14.118;2023-10-09T02:04:57;1.38;;;1.27;;
8331;SDS011;4203;48.144;14.118;2023-10-09T02:07:34;1.30;;;1.25;;
8331;SDS011;4203;48.144;14.118;2023-10-09T02:10:11;1.30;;;1.30;;
8331;SDS011;4203;48.144;14.118;2023-10-09T02:12:51;1.60;;;1.50;;
8331;SDS011;4203;48.144;14.118;2023-10-09T02:15:22;2.15;;;2.05;;
8331;SDS011;4203;48.144;14.118;2023-10-09T02:18:04;1.30;;;1.30;;
8331;SDS011;4203;48.144;14.118;2023-10-09T02:20:42;1.42;;;1.33;;
8331;SDS011;4203;48.144;14.118;2023-10-09T02:23:11;1.58;;;1.48;;
8331;SDS011;4203;48.144;14.118;2023-10-09T02:25:41;1.73;;;1.65;;
8331;SDS011;4203;48.144;14.118;2023-10-09T02:28:10;1.20;;;1.20;;
8331;SDS011;4203;48.144;14.118;2023-10-09T02:30:43;1.52;;;1.42;;
8331;SDS011;4203;48.144;14.118;2023-10-09T02:33:13;1.40;;;1.30;;
8331;SDS011;4203;48.144;14.118;2023-10-09T02:35:46;1.10;;;1.05;;
8331;SDS011;4203;48.144;14.118;2023-10-09T02:38:16;1.45;;;1.42;;
8331;SDS011;4203;48.144;14.118;2023-10-09T02:40:49;1.25;;;1.25;;
8331;SDS011;4203;48.144;14.118;2023-10-09T02:43:43;1.83;;;1.73;;
8331;SDS011;4203;48.144;14.118;2023-10-09T02:46:11;1.48;;;1.42;;
8331;SDS011;4203;48.144;14.118;2023-10-09T02:48:43;1.77;;;1.70;;
8331;SDS011;4203;48.144;14.118;2023-10-09T02:51:16;2.08;;;1.88;;
8331;SDS011;4203;48.144;14.118;2023-10-09T02:53:58;1.35;;;1.35;;
8331;SDS011;4203;48.144;14.118;2023-10-09T02:56:35;4.25;;;1.48;;
8331;SDS011;4203;48.144;14.118;2023-10-09T02:59:07;1.33;;;1.30;;
8331;SDS011;4203;48.144;14.118;2023-10-09T03:01:36;1.42;;;1.42;;
8331;SDS011;4203;48.144;14.118;2023-10-09T03:04:05;1.63;;;1.63;;
8331;SDS011;4203;48.144;14.118;2023-10-09T03:06:36;1.80;;;1.70;;
8331;SDS011;4203;48.144;14.118;2023-10-09T03:09:08;1.58;;;1.45;;
8331;SDS011;4203;48.144;14.118;2023-10-09T03:11:44;1.60;;;1.60;;
8331;SDS011;4203;48.144;14.118;2023-10-09T03:14:13;2.75;;;1.45;;
8331;SDS011;4203;48.144;14.118;2023-10-09T03:16:41;1.60;;;1.50;;
8331;SDS011;4203;48.144;14.118;2023-10-09T03:19:09;1.67;;;1.58;;
8331;SDS011;4203;48.144;14.118;2023-10-09T03:21:38;1.48;;;1.40;;
8331;SDS011;4203;48.144;14.118;2023-10-09T03:24:06;1.58;;;1.50;;
8331;SDS011;4203;48.144;14.118;2023-10-09T03:26:34;1.70;;;1.60;;
8331;SDS011;4203;48.144;14.118;2023-10-09T03:29:03;1.70;;;1.60;;
8331;SDS011;4203;48.144;14.118;2023-10-09T03:31:35;1.50;;;1.40;;
8331;SDS011;4203;48.144;14.118;2023-10-09T03:34:03;1.88;;;1.77;;
8331;SDS011;4203;48.144;14.118;2023-10-09T03:36:30;1.60;;;1.60;;
8331;SDS011;4203;48.144;14.118;2023-10-09T03:39:03;1.60;;;1.58;;
8331;SDS011;4203;48.144;14.118;2023-10-09T03:41:43;3.13;;;1.60;;
8331;SDS011;4203;48.144;14.118;2023-10-09T03:44:14;1.85;;;1.75;;
8331;SDS011;4203;48.144;14.118;2023-10-09T03:46:44;1.60;;;1.50;;
8331;SDS011;4203;48.144;14.118;2023-10-09T03:49:12;1.50;;;1.50;;
8331;SDS011;4203;48.144;14.118;2023-10-09T03:51:48;1.65;;;1.60;;
8331;SDS011;4203;48.144;14.118;2023-10-09T03:54:15;1.88;;;1.77;;
8331;SDS011;4203;48.144;14.118;2023-10-09T03:56:45;1.67;;;1.58;;
8331;SDS011;4203;48.144;14.118;2023-10-09T03:59:16;1.80;;;1.70;;
8331;SDS011;4203;48.144;14.118;2023-10-09T04:01:45;1.40;;;1.40;;
8331;SDS011;4203;48.144;14.118;2023-10-09T04:04:13;1.50;;;1.50;;
8331;SDS011;4203;48.144;14.118;2023-10-09T04:06:41;1.50;;;1.50;;
8331;SDS011;4203;48.144;14.118;2023-10-09T04:09:09;1.60;;;1.60;;
8331;SDS011;4203;48.144;14.118;2023-10-09T04:12:00;1.88;;;1.77;;
8331;SDS011;4203;48.144;14.118;2023-10-09T04:15:00;1.40;;;1.30;;
8331;SDS011;4203;48.144;14.118;2023-10-09T04:17:30;1.55;;;1.45;;
8331;SDS011;4203;48.144;14.118;2023-10-09T04:20:02;1.90;;;1.80;;
8331;SDS011;4203;48.144;14.118;2023-10-09T04:22:55;1.63;;;1.52;;
8331;SDS011;4203;48.144;14.118;2023-10-09T04:25:30;2.10;;;1.70;;
8331;SDS011;4203;48.144;14.118;2023-10-09T04:28:06;1.60;;;1.50;;
8331;SDS011;4203;48.144;14.118;2023-10-09T04:30:38;1.55;;;1.50;;
8331;SDS011;4203;48.144;14.118;2023-10-09T04:33:09;1.50;;;1.50;;
8331;SDS011;4203;48.144;14.118;2023-10-09T04:35:53;1.50;;;1.50;;
8331;SDS011;4203;48.144;14.118;2023-10-09T04:38:34;4.45;;;1.70;;
8331;SDS011;4203;48.144;14.118;2023-10-09T04:41:04;2.00;;;1.90;;
8331;SDS011;4203;48.144;14.118;2023-10-09T04:43:33;3.08;;;2.70;;
8331;SDS011;4203;48.144;14.118;2023-10-09T04:46:02;2.33;;;2.15;;
8331;SDS011;4203;48.144;14.118;2023-10-09T04:48:48;2.58;;;2.38;;
8331;SDS011;4203;48.144;14.118;2023-10-09T04:51:17;2.10;;;2.00;;
8331;SDS011;4203;48.144;14.118;2023-10-09T04:53:59;4.10;;;2.00;;
8331;SDS011;4203;48.144;14.118;2023-10-09T04:56:38;2.42;;;2.33;;
8331;SDS011;4203;48.144;14.118;2023-10-09T04:59:17;2.08;;;1.98;;
8331;SDS011;4203;48.144;14.118;2023-10-09T05:01:51;1.50;;;1.50;;
8331;SDS011;4203;48.144;14.118;2023-10-09T05:04:24;2.08;;;1.88;;
8331;SDS011;4203;48.144;14.118;2023-10-09T05:07:05;1.60;;;1.60;;
8331;SDS011;4203;48.144;14.118;2023-10-09T05:09:46;1.58;;;1.58;;
8331;SDS011;4203;48.144;14.118;2023-10-09T05:12:31;1.73;;;1.63;;
8331;SDS011;4203;48.144;14.118;2023-10-09T05:14:57;1.95;;;1.52;;
8331;SDS011;4203;48.144;14.118;2023-10-09T05:17:35;1.70;;;1.60;;
8331;SDS011;4203;48.144;14.118;2023-10-09T05:20:04;1.70;;;1.70;;
8331;SDS011;4203;48.144;14.118;2023-10-09T05:22:50;2.90;;;2.00;;
8331;SDS011;4203;48.144;14.118;2023-10-09T05:25:24;1.98;;;1.88;;
8331;SDS011;4203;48.144;14.118;2023-10-09T05:28:05;2.03;;;1.60;;
8331;SDS011;4203;48.144;14.118;2023-10-09T05:30:46;1.33;;;1.33;;
8331;SDS011;4203;48.144;14.118;2023-10-09T05:33:22;1.70;;;1.70;;
8331;SDS011;4203;48.144;14.118;2023-10-09T05:35:54;1.55;;;1.45;;
8331;SDS011;4203;48.144;14.118;2023-10-09T05:38:47;1.70;;;1.60;;
8331;SDS011;4203;48.144;14.118;2023-10-09T05:41:24;1.75;;;1.65;;
8331;SDS011;4203;48.144;14.118;2023-10-09T05:44:08;1.98;;;1.88;;
8331;SDS011;4203;48.144;14.118;2023-10-09T05:46:52;1.90;;;1.80;;
8331;SDS011;4203;48.144;14.118;2023-10-09T05:49:49;4.03;;;2.17;;
8331;SDS011;4203;48.144;14.118;2023-10-09T05:52:43;1.65;;;1.65;;
8331;SDS011;4203;48.144;14.118;2023-10-09T05:55:28;3.65;;;1.70;;
8331;SDS011;4203;48.144;14.118;2023-10-09T05:58:13;2.58;;;2.38;;
8331;SDS011;4203;48.144;14.118;2023-10-09T06:00:59;3.53;;;2.20;;
8331;SDS011;4203;48.144;14.118;2023-10-09T06:03:45;2.03;;;1.92;;
8331;SDS011;4203;48.144;14.118;2023-10-09T06:06:22;3.35;;;1.95;;
8331;SDS011;4203;48.144;14.118;2023-10-09T06:09:08;2.22;;;2.10;;
8331;SDS011;4203;48.144;14.118;2023-10-09T06:11:56;2.20;;;2.10;;
8331;SDS011;4203;48.144;14.118;2023-10-09T06:14:43;2.28;;;2.17;;
8331;SDS011;4203;48.144;14.118;2023-10-09T06:17:22;3.05;;;2.60;;
8331;SDS011;4203;48.144;14.118;2023-10-09T06:19:52;2.80;;;2.60;;
8331;SDS011;4203;48.144;14.118;2023-10-09T06:22:25;2.78;;;2.58;;
8331;SDS011;4203;48.144;14.118;2023-10-09T06:25:10;2.25;;;2.13;;
8331;SDS011;4203;48.144;14.118;2023-10-09T06:27:43;2.47;;;2.28;;
8331;SDS011;4203;48.144;14.118;2023-10-09T06:30:34;2.60;;;2.40;;
8331;SDS011;4203;48.144;14.118;2023-10-09T06:33:01;2.10;;;2.00;;
8331;SDS011;4203;48.144;14.118;2023-10-09T06:35:44;2.15;;;2.05;;
8331;SDS011;4203;48.144;14.118;2023-10-09T06:38:20;2.35;;;2.25;;
8331;SDS011;4203;48.144;14.118;2023-10-09T06:40:48;2.78;;;2.58;;
8331;SDS011;4203;48.144;14.118;2023-10-09T06:43:33;2.83;;;2.63;;
8331;SDS011;4203;48.144;14.118;2023-10-09T06:46:14;2.90;;;2.40;;
8331;SDS011;4203;48.144;14.118;2023-10-09T06:48:59;3.50;;;2.80;;
8331;SDS011;4203;48.144;14.118;2023-10-09T06:51:40;2.85;;;2.65;;
8331;SDS011;4203;48.144;14.118;2023-10-09T06:54:08;3.75;;;2.78;;
8331;SDS011;4203;48.144;14.118;2023-10-09T06:56:40;2.45;;;2.25;;
8331;SDS011;4203;48.144;14.118;2023-10-09T06:59:38;2.35;;;2.25;;
8331;SDS011;4203;48.144;14.118;2023-10-09T07:02:28;3.15;;;2.80;;
8331;SDS011;4203;48.144;14.118;2023-10-09T07:04:56;2.60;;;2.47;;
8331;SDS011;4203;48.144;14.118;2023-10-09T07:07:35;3.88;;;2.80;;
8331;SDS011;4203;48.144;14.118;2023-10-09T07:10:16;5.47;;;3.28;;
8331;SDS011;4203;48.144;14.118;2023-10-09T07:12:58;2.90;;;2.70;;
8331;SDS011;4203;48.144;14.118;2023-10-09T07:15:27;2.70;;;2.50;;
8331;SDS011;4203;48.144;14.118;2023-10-09T07:18:12;3.00;;;2.78;;
8331;SDS011;4203;48.144;14.118;2023-10-09T07:21:06;3.10;;;2.75;;
8331;SDS011;4203;48.144;14.118;2023-10-09T07:23:37;2.90;;;2.70;;
8331;SDS011;4203;48.144;14.118;2023-10-09T07:26:14;5.72;;;2.85;;
8331;SDS011;4203;48.144;14.118;2023-10-09T07:28:48;3.00;;;2.70;;
8331;SDS011;4203;48.144;14.118;2023-10-09T07:31:19;3.47;;;3.17;;
8331;SDS011;4203;48.144;14.118;2023-10-09T07:33:55;3.65;;;3.03;;
8331;SDS011;4203;48.144;14.118;2023-10-09T07:36:46;3.63;;;3.10;;
8331;SDS011;4203;48.144;14.118;2023-10-09T07:39:14;4.35;;;3.47;;
8331;SDS011;4203;48.144;14.118;2023-10-09T07:41:44;6.05;;;3.42;;
8331;SDS011;4203;48.144;14.118;2023-10-09T07:44:20;3.00;;;2.80;;
8331;SDS011;4203;48.144;14.118;2023-10-09T07:47:02;3.80;;;3.42;;
8331;SDS011;4203;48.144;14.118;2023-10-09T07:49:48;5.05;;;3.33;;
8331;SDS011;4203;48.144;14.118;2023-10-09T07:52:18;3.40;;;3.17;;
8331;SDS011;4203;48.144;14.118;2023-10-09T07:54:51;3.30;;;2.95;;
8331;SDS011;4203;48.144;14.118;2023-10-09T07:57:28;3.65;;;2.97;;
8331;SDS011;4203;48.144;14.118;2023-10-09T08:00:04;3.13;;;2.92;;
8331;SDS011;4203;48.144;14.118;2023-10-09T08:02:58;3.60;;;3.30;;
8331;SDS011;4203;48.144;14.118;2023-10-09T08:05:28;3.00;;;2.80;;
8331;SDS011;4203;48.144;14.118;2023-10-09T08:08:00;4.15;;;3.70;;
8331;SDS011;4203;48.144;14.118;2023-10-09T08:10:41;3.00;;;2.78;;
8331;SDS011;4203;48.144;14.118;2023-10-09T08:13:27;3.17;;;2.92;;
8331;SDS011;4203;48.144;14.118;2023-10-09T08:16:13;3.15;;;2.95;;
8331;SDS011;4203;48.144;14.118;2023-10-09T08:18:47;4.00;;;3.60;;
8331;SDS011;4203;48.144;14.118;2023-10-09T08:21:16;3.42;;;3.22;;
8331;SDS011;4203;48.144;14.118;2023-10-09T08:24:03;4.55;;;2.95;;
8331;SDS011;4203;48.144;14.118;2023-10-09T08:26:47;4.05;;;3.60;;
8331;SDS011;4203;48.144;14.118;2023-10-09T08:29:36;6.82;;;3.03;;
8331;SDS011;4203;48.144;14.118;2023-10-09T08:32:02;4.60;;;4.15;;
8331;SDS011;4203;48.144;14.118;2023-10-09T08:34:43;4.35;;;3.53;;
8331;SDS011;4203;48.144;14.118;2023-10-09T08:37:13;5.00;;;4.10;;
8331;SDS011;4203;48.144;14.118;2023-10-09T08:39:41;4.13;;;3.72;;
8331;SDS011;4203;48.144;14.118;2023-10-09T08:42:10;6.38;;;3.92;;
8331;SDS011;4203;48.144;14.118;2023-10-09T08:44:40;4.53;;;3.83;;
8331;SDS011;4203;48.144;14.118;2023-10-09T08:47:09;4.80;;;4.03;;
8331;SDS011;4203;48.144;14.118;2023-10-09T08:49:37;6.70;;;4.38;;
8331;SDS011;4203;48.144;14.118;2023-10-09T08:52:04;4.82;;;4.20;;
8331;SDS011;4203;48.144;14.118;2023-10-09T08:54:32;4.35;;;3.92;;
8331;SDS011;4203;48.144;14.118;2023-10-09T08:57:00;4.97;;;3.45;;
8331;SDS011;4203;48.144;14.118;2023-10-09T08:59:27;4.30;;;3.55;;
8331;SDS011;4203;48.144;14.118;2023-10-09T09:01:57;5.65;;;3.78;;
8331;SDS011;4203;48.144;14.118;2023-10-09T09:04:34;4.05;;;3.65;;
8331;SDS011;4203;48.144;14.118;2023-10-09T09:07:03;5.38;;;3.72;;
8331;SDS011;4203;48.144;14.118;2023-10-09T09:09:32;3.58;;;3.20;;
8331;SDS011;4203;48.144;14.118;2023-10-09T09:11:59;4.60;;;3.20;;
8331;SDS011;4203;48.144;14.118;2023-10-09T09:14:36;6.47;;;3.80;;
8331;SDS011;4203;48.144;14.118;2023-10-09T09:17:07;3.80;;;3.30;;
8331;SDS011;4203;48.144;14.118;2023-10-09T09:19:36;3.85;;;3.50;;
8331;SDS011;4203;48.144;14.118;2023-10-09T09:22:04;4.35;;;2.95;;
8331;SDS011;4203;48.144;14.118;2023-10-09T09:24:39;5.50;;;3.25;;
8331;SDS011;4203;48.144;14.118;2023-10-09T09:27:17;4.95;;;2.83;;
8331;SDS011;4203;48.144;14.118;2023-10-09T09:29:46;4.82;;;3.55;;
8331;SDS011;4203;48.144;14.118;2023-10-09T09:32:30;5.40;;;3.60;;
8331;SDS011;4203;48.144;14.118;2023-10-09T09:35:02;5.50;;;3.45;;
8331;SDS011;4203;48.144;14.118;2023-10-09T09:37:31;5.57;;;3.10;;
8331;SDS011;4203;48.144;14.118;2023-10-09T09:40:15;3.97;;;3.53;;
8331;SDS011;4203;48.144;14.118;2023-10-09T09:42:55;3.33;;;3.03;;
8331;SDS011;4203;48.144;14.118;2023-10-09T09:45:30;3.88;;;3.17;;
8331;SDS011;4203;48.144;14.118;2023-10-09T09:48:00;4.50;;;3.35;;
8331;SDS011;4203;48.144;14.118;2023-10-09T09:50:31;4.10;;;3.10;;
8331;SDS011;4203;48.144;14.118;2023-10-09T09:53:02;4.55;;;2.83;;
8331;SDS011;4203;48.144;14.118;2023-10-09T09:55:33;4.07;;;3.65;;
8331;SDS011;4203;48.144;14.118;2023-10-09T09:58:07;6.30;;;3.33;;
8331;SDS011;4203;48.144;14.118;2023-10-09T10:00:45;5.22;;;3.58;;
8331;SDS011;4203;48.144;14.118;2023-10-09T10:03:20;7.53;;;4.25;;
8331;SDS011;4203;48.144;14.118;2023-10-09T10:05:52;6.65;;;3.60;;
8331;SDS011;4203;48.144;14.118;2023-10-09T10:08:22;7.20;;;3.65;;
8331;SDS011;4203;48.144;14.118;2023-10-09T10:10:57;3.28;;;2.97;;
8331;SDS011;4203;48.144;14.118;2023-10-09T10:16:27;6.32;;;3.33;;
8331;SDS011;4203;48.144;14.118;2023-10-09T10:19:02;7.30;;;3.13;;
8331;SDS011;4203;48.144;14.118;2023-10-09T10:21:48;7.60;;;3.22;;
8331;SDS011;4203;48.144;14.118;2023-10-09T10:27:20;5.10;;;3.13;;
8331;SDS011;4203;48.144;14.118;2023-10-09T10:32:55;4.65;;;3.13;;
8331;SDS011;4203;48.144;14.118;2023-10-09T10:35:25;4.97;;;3.10;;
8331;SDS011;4203;48.144;14.118;2023-10-09T10:38:19;9.88;;;3.47;;
8331;SDS011;4203;48.144;14.118;2023-10-09T10:40:49;8.52;;;3.55;;
8331;SDS011;4203;48.144;14.118;2023-10-09T10:43:22;5.43;;;3.08;;
8331;SDS011;4203;48.144;14.118;2023-10-09T10:46:01;7.13;;;3.30;;
8331;SDS011;4203;48.144;14.118;2023-10-09T10:48:39;6.88;;;2.80;;
8331;SDS011;4203;48.144;14.118;2023-10-09T10:51:13;6.82;;;3.05;;
8331;SDS011;4203;48.144;14.118;2023-10-09T10:53:50;7.00;;;2.63;;
8331;SDS011;4203;48.144;14.118;2023-10-09T10:56:20;4.55;;;3.20;;
8331;SDS011;4203;48.144;14.118;2023-10-09T10:58:59;15.98;;;3.45;;
8331;SDS011;4203;48.144;14.118;2023-10-09T11:01:38;7.50;;;3.08;;
8331;SDS011;4203;48.144;14.118;2023-10-09T11:04:19;7.90;;;3.55;;
8331;SDS011;4203;48.144;14.118;2023-10-09T11:07:05;4.60;;;2.53;;
8331;SDS011;4203;48.144;14.118;2023-10-09T11:09:44;9.43;;;3.10;;
8331;SDS011;4203;48.144;14.118;2023-10-09T11:12:43;11.05;;;3.30;;
8331;SDS011;4203;48.144;14.118;2023-10-09T11:15:32;6.72;;;2.90;;
8331;SDS011;4203;48.144;14.118;2023-10-09T11:18:14;5.63;;;2.80;;
8331;SDS011;4203;48.144;14.118;2023-10-09T11:20:48;4.15;;;2.63;;
8331;SDS011;4203;48.144;14.118;2023-10-09T11:23:40;11.00;;;3.42;;
8331;SDS011;4203;48.144;14.118;2023-10-09T11:26:18;7.32;;;2.88;;
8331;SDS011;4203;48.144;14.118;2023-10-09T11:29:07;7.45;;;2.92;;
8331;SDS011;4203;48.144;14.118;2023-10-09T11:31:57;10.80;;;3.00;;
8331;SDS011;4203;48.144;14.118;2023-10-09T11:34:25;5.60;;;2.97;;
8331;SDS011;4203;48.144;14.118;2023-10-09T11:37:00;9.35;;;3.85;;
8331;SDS011;4203;48.144;14.118;2023-10-09T11:39:32;7.50;;;3.53;;
8331;SDS011;4203;48.144;14.118;2023-10-09T11:42:00;11.82;;;3.35;;
8331;SDS011;4203;48.144;14.118;2023-10-09T11:44:35;8.57;;;3.35;;
8331;SDS011;4203;48.144;14.118;2023-10-09T11:47:04;8.35;;;3.72;;
8331;SDS011;4203;48.144;14.118;2023-10-09T11:49:50;7.50;;;3.38;;
8331;SDS011;4203;48.144;14.118;2023-10-09T11:52:43;7.78;;;3.03;;
8331;SDS011;4203;48.144;14.118;2023-10-09T11:55:36;7.30;;;3.35;;
8331;SDS011;4203;48.144;14.118;2023-10-09T11:58:04;7.03;;;3.60;;
8331;SDS011;4203;48.144;14.118;2023-10-09T12:00:32;9.25;;;3.05;;
8331;SDS011;4203;48.144;14.118;2023-10-09T12:03:10;12.35;;;3.78;;
8331;SDS011;4203;48.144;14.118;2023-10-09T12:05:38;7.28;;;3.65;;
8331;SDS011;4203;48.144;14.118;2023-10-09T12:08:09;8.88;;;4.00;;
8331;SDS011;4203;48.144;14.118;2023-10-09T12:10:42;11.48;;;3.20;;
8331;SDS011;4203;48.144;14.118;2023-10-09T12:13:13;7.15;;;3.15;;
8331;SDS011;4203;48.144;14.118;2023-10-09T12:15:41;14.63;;;3.35;;
8331;SDS011;4203;48.144;14.118;2023-10-09T12:18:11;6.03;;;2.67;;
8331;SDS011;4203;48.144;14.118;2023-10-09T12:20:41;7.18;;;3.45;;
8331;SDS011;4203;48.144;14.118;2023-10-09T12:23:15;8.93;;;3.33;;
8331;SDS011;4203;48.144;14.118;2023-10-09T12:25:44;10.15;;;3.58;;
8331;SDS011;4203;48.144;14.118;2023-10-09T12:28:12;11.23;;;3.20;;
8331;SDS011;4203;48.144;14.118;2023-10-09T12:30:40;6.63;;;3.25;;
8331;SDS011;4203;48.144;14.118;2023-10-09T12:33:07;9.05;;;3.10;;
8331;SDS011;4203;48.144;14.118;2023-10-09T12:35:37;7.40;;;3.45;;
8331;SDS011;4203;48.144;14.118;2023-10-09T12:38:05;11.25;;;3.47;;
8331;SDS011;4203;48.144;14.118;2023-10-09T12:40:35;9.20;;;3.80;;
8331;SDS011;4203;48.144;14.118;2023-10-09T12:43:06;12.45;;;3.63;;
8331;SDS011;4203;48.144;14.118;2023-10-09T12:45:40;8.05;;;3.55;;
8331;SDS011;4203;48.144;14.118;2023-10-09T12:48:08;8.10;;;3.08;;
8331;SDS011;4203;48.144;14.118;2023-10-09T12:50:36;8.90;;;3.17;;
8331;SDS011;4203;48.144;14.118;2023-10-09T12:53:07;8.20;;;3.22;;
8331;SDS011;4203;48.144;14.118;2023-10-09T12:55:35;8.75;;;3.00;;
8331;SDS011;4203;48.144;14.118;2023-10-09T12:58:07;6.78;;;3.10;;
8331;SDS011;4203;48.144;14.118;2023-10-09T13:00:40;6.63;;;2.85;;
8331;SDS011;4203;48.144;14.118;2023-10-09T13:03:13;9.45;;;2.92;;
8331;SDS011;4203;48.144;14.118;2023-10-09T13:05:44;6.22;;;3.03;;
8331;SDS011;4203;48.144;14.118;2023-10-09T13:08:18;6.93;;;2.92;;
8331;SDS011;4203;48.144;14.118;2023-10-09T13:10:48;7.95;;;3.45;;
8331;SDS011;4203;48.144;14.118;2023-10-09T13:13:25;6.03;;;3.25;;
8331;SDS011;4203;48.144;14.118;2023-10-09T13:16:09;6.55;;;3.30;;
8331;SDS011;4203;48.144;14.118;2023-10-09T13:18:48;8.05;;;3.83;;
8331;SDS011;4203;48.144;14.118;2023-10-09T13:21:18;8.60;;;3.70;;
8331;SDS011;4203;48.144;14.118;2023-10-09T13:23:47;8.55;;;3.70;;
8331;SDS011;4203;48.144;14.118;2023-10-09T13:26:15;13.02;;;4.15;;
8331;SDS011;4203;48.144;14.118;2023-10-09T13:28:51;10.65;;;3.03;;
8331;SDS011;4203;48.144;14.118;2023-10-09T13:31:19;6.95;;;3.03;;
8331;SDS011;4203;48.144;14.118;2023-10-09T13:33:50;9.27;;;3.15;;
8331;SDS011;4203;48.144;14.118;2023-10-09T13:36:19;7.30;;;2.80;;
8331;SDS011;4203;48.144;14.118;2023-10-09T13:38:54;8.23;;;3.28;;
8331;SDS011;4203;48.144;14.118;2023-10-09T13:41:22;10.10;;;4.80;;
8331;SDS011;4203;48.144;14.118;2023-10-09T13:43:55;7.78;;;3.13;;
8331;SDS011;4203;48.144;14.118;2023-10-09T13:46:23;14.30;;;3.45;;
8331;SDS011;4203;48.144;14.118;2023-10-09T13:48:49;8.45;;;3.50;;
8331;SDS011;4203;48.144;14.118;2023-10-09T13:51:18;7.55;;;3.28;;
8331;SDS011;4203;48.144;14.118;2023-10-09T13:53:49;6.85;;;2.75;;
8331;SDS011;4203;48.144;14.118;2023-10-09T13:56:16;8.10;;;2.97;;
8331;SDS011;4203;48.144;14.118;2023-10-09T13:58:48;9.98;;;3.10;;
8331;SDS011;4203;48.144;14.118;2023-10-09T14:01:18;10.65;;;3.08;;
8331;SDS011;4203;48.144;14.118;2023-10-09T14:03:54;6.20;;;3.05;;
8331;SDS011;4203;48.144;14.118;2023-10-09T14:06:22;8.02;;;3.08;;
8331;SDS011;4203;48.144;14.118;2023-10-09T14:08:57;10.07;;;3.42;;
8331;SDS011;4203;48.144;14.118;2023-10-09T14:11:27;6.75;;;3.33;;
8331;SDS011;4203;48.144;14.118;2023-10-09T14:13:54;8.25;;;3.28;;
8331;SDS011;4203;48.144;14.118;2023-10-09T14:16:23;4.15;;;3.40;;
8331;SDS011;4203;48.144;14.118;2023-10-09T14:18:53;10.20;;;3.25;;
8331;SDS011;4203;48.144;14.118;2023-10-09T14:21:25;8.43;;;3.20;;
8331;SDS011;4203;48.144;14.118;2023-10-09T14:23:55;7.63;;;3.08;;
8331;SDS011;4203;48.144;14.118;2023-10-09T14:26:24;9.00;;;3.42;;
8331;SDS011;4203;48.144;14.118;2023-10-09T14:28:53;6.68;;;3.35;;
8331;SDS011;4203;48.144;14.118;2023-10-09T14:31:24;8.65;;;3.78;;
8331;SDS011;4203;48.144;14.118;2023-10-09T14:33:55;8.40;;;3.50;;
8331;SDS011;4203;48.144;14.118;2023-10-09T14:36:23;8.80;;;3.28;;
8331;SDS011;4203;48.144;14.118;2023-10-09T14:38:58;10.27;;;2.92;;
8331;SDS011;4203;48.144;14.118;2023-10-09T14:41:26;5.85;;;3.20;;
8331;SDS011;4203;48.144;14.118;2023-10-09T14:43:58;9.88;;;3.17;;
8331;SDS011;4203;48.144;14.118;2023-10-09T14:46:27;10.15;;;3.03;;
8331;SDS011;4203;48.144;14.118;2023-10-09T14:48:55;11.02;;;3.65;;
8331;SDS011;4203;48.144;14.118;2023-10-09T14:51:23;9.02;;;3.13;;
8331;SDS011;4203;48.144;14.118;2023-10-09T14:53:54;6.50;;;3.90;;
8331;SDS011;4203;48.144;14.118;2023-10-09T14:56:23;6.15;;;3.45;;
8331;SDS011;4203;48.144;14.118;2023-10-09T14:58:55;8.68;;;3.50;;
8331;SDS011;4203;48.144;14.118;2023-10-09T15:01:24;7.13;;;3.88;;
8331;SDS011;4203;48.144;14.118;2023-10-09T15:03:56;8.40;;;3.60;;
8331;SDS011;4203;48.144;14.118;2023-10-09T15:06:25;7.65;;;3.80;;
8331;SDS011;4203;48.144;14.118;2023-10-09T15:08:55;11.45;;;3.83;;
8331;SDS011;4203;48.144;14.118;2023-10-09T15:11:24;6.40;;;3.33;;
8331;SDS011;4203;48.144;14.118;2023-10-09T15:13:54;9.55;;;2.90;;
8331;SDS011;4203;48.144;14.118;2023-10-09T15:16:23;8.57;;;2.88;;
8331;SDS011;4203;48.144;14.118;2023-10-09T15:18:56;8.55;;;2.92;;
8331;SDS011;4203;48.144;14.118;2023-10-09T15:21:27;10.73;;;2.80;;
8331;SDS011;4203;48.144;14.118;2023-10-09T15:23:57;6.82;;;2.92;;
8331;SDS011;4203;48.144;14.118;2023-10-09T15:26:25;10.85;;;2.35;;
8331;SDS011;4203;48.144;14.118;2023-10-09T15:28:59;11.25;;;3.47;;
8331;SDS011;4203;48.144;14.118;2023-10-09T15:31:29;5.22;;;2.63;;
8331;SDS011;4203;48.144;14.118;2023-10-09T15:33:59;7.57;;;2.20;;
8331;SDS011;4203;48.144;14.118;2023-10-09T15:36:27;8.52;;;2.70;;
8331;SDS011;4203;48.144;14.118;2023-10-09T15:38:57;12.52;;;2.63;;
8331;SDS011;4203;48.144;14.118;2023-10-09T15:41:26;6.82;;;2.25;;
8331;SDS011;4203;48.144;14.118;2023-10-09T15:43:55;14.15;;;2.95;;
8331;SDS011;4203;48.144;14.118;2023-10-09T15:46:23;7.18;;;3.10;;
8331;SDS011;4203;48.144;14.118;2023-10-09T15:48:52;10.68;;;2.67;;
8331;SDS011;4203;48.144;14.118;2023-10-09T15:51:22;8.90;;;2.08;;
8331;SDS011;4203;48.144;14.118;2023-10-09T15:53:50;6.18;;;2.22;;